Relevés horaires La Dôle (Suisse)


Relevés horaires à La Dôle - Jeudi 10 Janv. 2008
Heure UTC1 Température [°C] Vent [km/h] Hum. [%] Pres.4 [hPa] Visi. [Km] Nébu. [octa] Préc.5 [mm] Cond.
2m. Res. Ros. Dir.2 Vit. Moy. Raf.3
23:00 1.6 -5.8 -0.9 SO 48.2 59.3 85.2 83 850(-0.4/3h) -- -- -- --
22:00 1.5 -6.3 -0.2 SO 53.7 61.1 85.2 88 850(-0.8/3h) -- -- -- --
21:00 1.8 -6.3 0.3 SO 61.1 61.1 85.2 90 850(-0.9/3h) -- -- -- --
20:00 1.7 -5.7 0.3 SO 48.2 51.9 74.1 90 850(-0.6/3h) -- -- -- --
19:00 1.8 -5.4 0.8 SO 46.3 50.0 68.5 93 850(-0.4/3h) -- -- -- --
18:00 2.0 -5.2 0.5 SSO 46.3 46.3 66.7 90 850(-0.1/3h) -- -- -- --
17:00 1.5 -4.8 0.4 OSO 33.3 44.4 63.0 92 850(0.0/3h) -- -- -- --
16:00 1.6 -5.2 -0.2 SO 38.9 46.3 59.3 88 850(-0.4/3h) -- -- -- --
15:00 1.0 -6.4 -0.1 O 44.4 46.3 64.8 92 850(-1.2/3h) -- -- -- --
14:00 1.0 -6.4 0.1 OSO 44.4 46.3 64.8 94 850(-1.6/3h) -- -- -- --
13:00 0.7 -6.2 -0.1 OSO 37.0 37.0 50.0 94 850(-1.2/3h) -- -- -- --
12:00 0.4 -5 -0.3 OSO 22.2 37.0 50.0 95 850(-0.5/3h) -- -- -- --
11:00 1.3 -4.6 -1.5 SO 27.8 37.0 50.0 82 850(0.1/3h) -- -- -- --
10:00 2.0 -4.5 -4.2 SO 37.0 37.0 50.0 63 850(0.6/3h) -- -- -- --
09:00 2.0 -4.2 -6.2 SO 33.3 35.2 46.3 54 850(0.5/3h) -- -- -- --
08:00 1.3 -5.1 -4.0 SSO 33.3 33.3 46.3 68 850(0.3/3h) -- -- -- --
07:00 0.8 -5.6 -3.1 SO 31.5 33.3 38.9 75 850(-0.2/3h) -- -- -- --
06:00 0.8 -5.6 -3.0 OSO 31.5 38.9 44.4 76 850(-0.3/3h) -- -- -- --
05:00 0.6 -5.5 -2.8 SO 27.8 33.3 40.7 78 850(-0.8/3h) -- -- -- --
04:00 0.8 -5.2 -2.9 SO 27.8 33.3 40.7 76 850(-0.6/3h) -- -- -- --
03:00 0.6 -6 -3.0 OSO 33.3 33.3 38.9 77 850(-0.7/3h) -- -- -- --
02:00 0.3 -5.4 -2.8 OSO 24.1 29.6 37.0 80 850(-0.4/3h) -- -- -- --
01:00 0.3 -5.6 -2.7 SO 25.9 31.5 38.9 80 850(-0.3/3h) -- -- -- --
00:00 0.3 -6.2 -2.1 SO 31.5 38.9 53.7 84 850(-0.3/3h) -- -- -- --

1 Coordinated Universal Time. Actuellement il est 03:00 locale et 01:00 UTC.

2 Le vent souffle depuis la direction indiquée vers la direction oposée.

3 Les rafales max. sont disponible 40 min après l'heure du relevé.

4 Pour les stations d'altitude (plus de 600m) le géopotentiel du niveau le plus proche de la pression obligatoire est indiqué.

5 Les stations disposant d'un diffuseur peuvent indiquer "trace". Cela signifie que des précipitations ont touchés le sol mais que la quantité est inférieure à 0.1 mm.

Copyright

Les données affichées sur cette page sont la propriété exclusive de Météo Suisse.

Récapitulatif de la journée
Température [°C] Vent [km/h] Ensoleillement4 [h] Precipitations totale5 [mm] Pression [Hpa]
Min1 Max.2 Moy.3 Max. Min Max.
-0.5 2.3 41.7 85.2 6 h 48 min 0 850.0 850.0

1 Température minimale relevée entre 18:00 UTC la veille et 18:00 UTC le jour donné.

2 Température maximale relevée entre 06:00 UTC le jour donné et 06:00 UTC le lendemain.

3 Vent moyen de la journée basé sur les relevés horaires.

4 Ensoleillement en heures relevé entre 06:00 UTC la veille et 06:00 UTC le jour donné.

5 Précipitations totales tombées entre 06:00 UTC la jour donné et 06:00 UTC le lendemain.

Graphiques horaires